Albin, Mississippi
Current Conditions -  °F | °C
As of 3:55 AM on Monday 22 Dec 2014 (Local Time) from KCKM Reporting Station
Overcast Overcast  
Wind Chill: 46°   Ceiling: 400
Heat Index: 48°   Visibility: 2.5mi
Dew Point: 48°   Wind: 6mph
Humidity: 100%   Direction: 170°S
Pressure: 29.88"   Gusts: NA
Location:  33.9477°N, 90.3476°W
Report Text: KCKM 220955Z AUTO 17005KT 2 1/2SM OVC004 09/09 A2988 RMK AO1
Loading
Personal Weather Stations






























Interactive Weather Map New forecast layout! Learn more

10-Day Weather Forecast

Advertisements
Track Severe Weather on mobile